createdAt,value
2022-09-01T00:00:48.099Z,24.60
2022-09-01T00:03:17.307Z,24.60
2022-09-01T00:05:46.785Z,24.60
2022-09-01T00:08:16.288Z,24.50
2022-09-01T00:10:47.172Z,24.60
2022-09-01T00:13:15.719Z,24.60
2022-09-01T00:15:45.468Z,24.60
2022-09-01T00:18:15.661Z,24.50
2022-09-01T00:20:44.002Z,24.50
2022-09-01T00:23:12.233Z,24.50
2022-09-01T00:25:40.567Z,24.50
2022-09-01T00:28:09.110Z,24.50
2022-09-01T00:30:37.345Z,24.50
2022-09-01T00:33:08.123Z,24.50
2022-09-01T00:35:37.147Z,24.40
2022-09-01T00:38:05.690Z,24.40
2022-09-01T00:40:34.172Z,24.40
2022-09-01T00:43:02.626Z,24.40
2022-09-01T00:45:30.805Z,24.40
2022-09-01T00:47:59.039Z,24.40
2022-09-01T00:50:28.753Z,24.40
2022-09-01T00:52:57.528Z,24.40
2022-09-01T00:55:30.316Z,24.40
2022-09-01T00:58:02.785Z,24.30
2022-09-01T01:00:33.225Z,24.30
2022-09-01T01:03:01.675Z,24.30
2022-09-01T01:05:34.915Z,24.30
2022-09-01T01:08:05.574Z,24.30
2022-09-01T01:10:37.800Z,24.30
2022-09-01T01:13:10.508Z,24.30
2022-09-01T01:15:39.122Z,24.30
2022-09-01T01:18:07.409Z,24.30
2022-09-01T01:20:54.303Z,24.30
2022-09-01T01:23:27.945Z,24.30
2022-09-01T01:25:59.916Z,24.30
2022-09-01T01:28:31.941Z,24.30
2022-09-01T01:31:06.036Z,24.30
2022-09-01T01:33:40.787Z,24.30
2022-09-01T01:36:14.539Z,24.20
2022-09-01T01:38:43.795Z,24.20
2022-09-01T01:41:14.849Z,24.20
2022-09-01T01:43:43.425Z,24.20
2022-09-01T01:46:14.526Z,24.20
2022-09-01T01:48:44.000Z,24.20
2022-09-01T01:51:13.985Z,24.20
2022-09-01T01:53:43.051Z,24.20
2022-09-01T01:56:13.000Z,24.20
2022-09-01T01:58:41.407Z,24.10
2022-09-01T02:01:10.863Z,24.10
2022-09-01T02:03:39.662Z,24.10
2022-09-01T02:06:12.097Z,24.10
2022-09-01T02:08:41.360Z,24.10
2022-09-01T02:11:09.975Z,24.10
2022-09-01T02:13:40.174Z,24.00
2022-09-01T02:16:12.146Z,24.00
2022-09-01T02:18:44.439Z,24.00
2022-09-01T02:21:18.470Z,24.00
2022-09-01T02:23:48.928Z,24.00
2022-09-01T02:26:19.086Z,24.00
2022-09-01T02:28:55.591Z,24.00
2022-09-01T02:31:24.936Z,24.00
2022-09-01T02:33:54.623Z,23.90
2022-09-01T02:36:25.312Z,23.90
2022-09-01T02:38:56.590Z,23.90
2022-09-01T02:41:29.286Z,23.90
2022-09-01T02:44:02.395Z,23.90
2022-09-01T02:46:31.016Z,23.80
2022-09-01T02:49:00.739Z,23.80
2022-09-01T02:51:29.294Z,23.80
2022-09-01T02:53:57.971Z,23.80
2022-09-01T02:56:27.682Z,23.80
2022-09-01T02:58:56.661Z,23.80
2022-09-01T03:01:29.713Z,23.80
2022-09-01T03:04:00.994Z,23.80
2022-09-01T03:06:29.636Z,23.80
2022-09-01T03:09:00.259Z,23.70
2022-09-01T03:11:30.013Z,23.70
2022-09-01T03:13:58.895Z,23.70
2022-09-01T03:16:30.425Z,23.70
2022-09-01T03:18:59.348Z,23.70
2022-09-01T03:21:28.210Z,23.70
2022-09-01T03:23:58.286Z,23.70
2022-09-01T03:26:26.708Z,23.70
2022-09-01T03:28:54.991Z,23.70
2022-09-01T03:31:27.464Z,23.70
2022-09-01T03:34:01.640Z,23.70
2022-09-01T03:36:31.082Z,23.70
2022-09-01T03:38:59.396Z,23.70
2022-09-01T03:41:29.590Z,23.70
2022-09-01T03:43:58.927Z,23.70
2022-09-01T03:46:36.256Z,23.60
2022-09-01T03:49:08.151Z,23.60
2022-09-01T03:51:39.222Z,23.60
2022-09-01T03:54:08.226Z,23.60
2022-09-01T03:56:41.146Z,23.60
2022-09-01T03:59:16.952Z,23.60
2022-09-01T04:01:46.104Z,23.60
2022-09-01T04:04:16.545Z,23.60
2022-09-01T04:06:46.418Z,23.60
2022-09-01T04:09:15.061Z,23.60
2022-09-01T04:11:46.271Z,23.60
2022-09-01T04:14:15.121Z,23.60
2022-09-01T04:17:02.821Z,23.60
2022-09-01T04:19:37.012Z,23.60
2022-09-01T04:22:07.924Z,23.60
2022-09-01T04:24:36.141Z,23.60
2022-09-01T04:27:07.421Z,23.60
2022-09-01T04:29:36.047Z,23.60
2022-09-01T04:32:13.193Z,23.60
2022-09-01T04:34:43.123Z,23.60
2022-09-01T04:37:13.302Z,23.50
2022-09-01T04:39:51.428Z,23.50
2022-09-01T04:42:24.136Z,23.50
2022-09-01T04:44:54.002Z,23.50
2022-09-01T04:47:35.172Z,23.50
2022-09-01T04:50:14.361Z,23.50
2022-09-01T04:52:43.203Z,23.50
2022-09-01T04:55:17.705Z,23.50
2022-09-01T04:57:49.467Z,23.50
2022-09-01T05:00:23.569Z,23.50
2022-09-01T05:02:53.401Z,23.50
2022-09-01T05:05:24.649Z,23.50
2022-09-01T05:07:55.347Z,23.50
2022-09-01T05:10:30.048Z,23.50
2022-09-01T05:12:58.448Z,23.50
2022-09-01T05:15:26.655Z,23.50
2022-09-01T05:17:55.589Z,23.60
2022-09-01T05:20:25.174Z,23.60
2022-09-01T05:22:55.075Z,23.60
2022-09-01T05:25:23.325Z,23.60
2022-09-01T05:27:52.804Z,23.60
2022-09-01T05:30:21.136Z,23.60
2022-09-01T05:32:50.667Z,23.60
2022-09-01T05:35:18.978Z,23.60
2022-09-01T05:37:51.825Z,23.70
2022-09-01T05:40:20.311Z,23.70
2022-09-01T05:42:48.914Z,23.80
2022-09-01T05:45:23.320Z,23.80
2022-09-01T05:47:52.699Z,23.90
2022-09-01T05:50:21.641Z,23.90
2022-09-01T05:52:51.331Z,24.00
2022-09-01T05:55:19.803Z,24.00
2022-09-01T05:57:48.314Z,24.00
2022-09-01T06:00:18.175Z,24.10
2022-09-01T06:02:47.099Z,24.10
2022-09-01T06:05:15.869Z,24.20
2022-09-01T06:07:44.371Z,24.30
2022-09-01T06:10:14.696Z,24.30
2022-09-01T06:12:45.273Z,24.30
2022-09-01T06:15:18.617Z,24.30
2022-09-01T06:17:47.198Z,24.40
2022-09-01T06:20:18.278Z,24.40
2022-09-01T06:22:47.697Z,24.50
2022-09-01T06:25:18.820Z,24.50
2022-09-01T06:27:48.313Z,24.60
2022-09-01T06:30:23.736Z,24.60
2022-09-01T06:32:52.568Z,24.60
2022-09-01T06:35:22.027Z,24.70
2022-09-01T06:37:50.441Z,24.70
2022-09-01T06:40:20.187Z,24.70
2022-09-01T06:42:51.030Z,24.70
2022-09-01T06:45:21.548Z,24.70
2022-09-01T06:48:00.036Z,24.80
2022-09-01T06:53:35.141Z,24.80
2022-09-01T06:56:05.222Z,24.90
2022-09-01T06:58:33.572Z,24.90
2022-09-01T07:01:08.323Z,25.00
2022-09-01T07:03:39.850Z,25.00
2022-09-01T07:06:10.687Z,25.00
2022-09-01T07:16:30.202Z,25.10
2022-09-01T07:17:26.510Z,25.10
2022-09-01T07:19:56.106Z,25.10
2022-09-01T07:23:03.483Z,25.20
2022-09-01T07:25:13.040Z,25.20
2022-09-01T07:27:45.442Z,25.20
2022-09-01T07:30:13.800Z,25.20
2022-09-01T07:32:47.268Z,25.20
2022-09-01T07:35:20.043Z,25.20
2022-09-01T07:38:47.591Z,25.20
2022-09-01T07:43:32.665Z,25.20
2022-09-01T07:49:29.539Z,25.20
2022-09-01T07:51:45.597Z,25.10
2022-09-01T07:54:14.247Z,25.00
2022-09-01T07:56:42.653Z,24.90
2022-09-01T07:59:15.564Z,24.90
2022-09-01T08:01:44.315Z,24.90
2022-09-01T08:04:12.944Z,24.80
2022-09-01T08:06:41.253Z,24.80
2022-09-01T08:09:11.469Z,24.80
2022-09-01T08:12:01.050Z,24.60
2022-09-01T08:14:34.104Z,24.60
2022-09-01T08:17:34.066Z,24.50
2022-09-01T08:19:53.599Z,24.40
2022-09-01T08:22:24.282Z,24.40
2022-09-01T08:24:53.110Z,24.40
2022-09-01T08:27:21.604Z,24.40
2022-09-01T08:29:51.233Z,24.40
2022-09-01T08:32:20.588Z,24.50
2022-09-01T08:34:48.943Z,24.50
2022-09-01T08:37:18.204Z,24.50
2022-09-01T08:39:48.831Z,24.50
2022-09-01T08:42:33.022Z,24.50
2022-09-01T08:45:08.490Z,24.40
2022-09-01T08:47:58.341Z,24.50
2022-09-01T08:50:25.570Z,24.50
2022-09-01T08:53:09.487Z,24.50
2022-09-01T08:55:42.839Z,24.50
2022-09-01T08:58:13.477Z,24.50
2022-09-01T09:00:50.489Z,24.50
2022-09-01T09:03:48.207Z,24.50
2022-09-01T09:06:23.043Z,24.40
2022-09-01T09:08:57.961Z,24.50
2022-09-01T09:11:52.465Z,24.50
2022-09-01T09:14:35.035Z,24.60
2022-09-01T09:17:05.065Z,24.60
2022-09-01T09:19:37.227Z,24.50
2022-09-01T09:22:11.289Z,24.50
2022-09-01T09:24:50.311Z,24.60
2022-09-01T09:27:21.868Z,24.60
2022-09-01T09:29:52.402Z,24.60
2022-09-01T09:32:25.801Z,24.60
2022-09-01T09:35:20.306Z,24.60
2022-09-01T09:37:48.535Z,24.70
2022-09-01T09:40:20.434Z,24.80
2022-09-01T09:43:06.493Z,24.70
2022-09-01T09:45:37.969Z,24.70
2022-09-01T09:48:11.133Z,24.70
2022-09-01T09:50:42.099Z,24.70
2022-09-01T09:53:17.144Z,24.80
2022-09-01T09:56:18.137Z,24.80
2022-09-01T09:58:49.142Z,24.80
2022-09-01T10:01:30.709Z,24.80
2022-09-01T10:04:03.709Z,24.80
2022-09-01T10:06:35.076Z,24.80
2022-09-01T10:09:06.825Z,24.80
2022-09-01T10:11:40.793Z,24.80
2022-09-01T10:14:35.311Z,24.80
2022-09-01T10:17:13.331Z,24.80
2022-09-01T10:19:58.670Z,24.80
2022-09-01T10:22:27.698Z,24.90
2022-09-01T10:24:55.963Z,25.00
2022-09-01T10:27:28.433Z,25.00
2022-09-01T10:30:23.964Z,25.00
2022-09-01T10:32:56.606Z,25.00
2022-09-01T10:35:30.071Z,25.10
2022-09-01T10:37:59.665Z,25.00
2022-09-01T10:40:41.365Z,25.00
2022-09-01T10:43:28.658Z,25.00
2022-09-01T10:46:05.202Z,25.00
2022-09-01T10:48:48.852Z,25.10
2022-09-01T10:51:56.607Z,25.10
2022-09-01T10:54:55.859Z,25.10
2022-09-01T10:57:42.701Z,25.20
2022-09-01T11:03:54.327Z,25.20
2022-09-01T11:07:14.451Z,25.10
2022-09-01T11:09:45.139Z,25.10
2022-09-01T11:12:48.414Z,25.10
2022-09-01T11:15:42.243Z,25.20
2022-09-01T11:18:17.355Z,25.30
2022-09-01T11:20:47.906Z,25.20
2022-09-01T11:23:27.802Z,25.20
2022-09-01T11:28:45.814Z,25.30
2022-09-01T11:31:31.039Z,25.40
2022-09-01T11:34:13.083Z,25.40
2022-09-01T11:37:00.410Z,25.40
2022-09-01T11:39:52.681Z,25.50
2022-09-01T11:42:28.066Z,25.50
2022-09-01T11:45:01.724Z,25.40
2022-09-01T11:47:35.157Z,25.40
2022-09-01T11:50:07.004Z,25.50
2022-09-01T11:52:37.738Z,25.40
2022-09-01T11:55:09.086Z,25.50
2022-09-01T11:57:39.391Z,25.50
2022-09-01T12:00:10.492Z,25.50
2022-09-01T12:02:45.849Z,25.60
2022-09-01T12:05:27.528Z,25.70
2022-09-01T12:07:56.651Z,25.70
2022-09-01T12:10:33.630Z,25.70
2022-09-01T12:13:06.272Z,25.80
2022-09-01T12:15:36.711Z,25.80
2022-09-01T12:18:19.164Z,25.80
2022-09-01T12:23:25.035Z,25.80
2022-09-01T12:25:57.187Z,25.80
2022-09-01T12:28:31.003Z,25.80
2022-09-01T12:31:01.654Z,25.80
2022-09-01T12:33:30.348Z,25.80
2022-09-01T12:36:30.959Z,25.90
2022-09-01T12:39:22.983Z,25.90
2022-09-01T12:42:07.480Z,25.90
2022-09-01T12:44:44.203Z,25.90
2022-09-01T12:47:15.030Z,25.90
2022-09-01T12:49:50.099Z,25.90
2022-09-01T12:52:25.904Z,25.90
2022-09-01T12:55:07.096Z,25.90
2022-09-01T12:57:39.082Z,25.90
2022-09-01T13:00:18.151Z,25.90
2022-09-01T13:02:51.015Z,25.90
2022-09-01T13:05:29.975Z,25.90
2022-09-01T13:08:01.745Z,25.90
2022-09-01T13:10:34.472Z,25.90
2022-09-01T13:13:04.276Z,25.90
2022-09-01T13:15:32.664Z,25.90
2022-09-01T13:18:01.154Z,25.90
2022-09-01T13:20:29.609Z,25.90
2022-09-01T13:22:57.887Z,25.90
2022-09-01T13:25:27.113Z,25.90
2022-09-01T13:27:55.936Z,25.90
2022-09-01T13:30:28.543Z,26.00
2022-09-01T13:35:46.051Z,26.00
2022-09-01T13:38:16.633Z,25.90
2022-09-01T13:40:47.626Z,25.90
2022-09-01T13:43:17.033Z,26.00
2022-09-01T13:45:47.056Z,26.00
2022-09-01T13:48:16.631Z,26.00
2022-09-01T13:53:38.024Z,26.10
2022-09-01T13:56:06.659Z,26.10
2022-09-01T13:58:34.833Z,26.10
2022-09-01T14:01:05.207Z,26.20
2022-09-01T14:03:33.621Z,26.20
2022-09-01T14:06:01.875Z,26.20
2022-09-01T14:08:30.813Z,26.20
2022-09-01T14:10:59.141Z,26.20
2022-09-01T14:13:31.121Z,26.20
2022-09-01T14:15:59.352Z,26.10
2022-09-01T14:18:32.987Z,26.10
2022-09-01T14:21:01.575Z,26.10
2022-09-01T14:23:29.884Z,26.20
2022-09-01T14:25:58.825Z,26.20
2022-09-01T14:28:27.020Z,26.20
2022-09-01T14:33:24.476Z,26.30
2022-09-01T14:35:54.304Z,26.30
2022-09-01T14:38:22.824Z,26.20
2022-09-01T14:40:53.423Z,26.20
2022-09-01T14:43:21.961Z,26.20
2022-09-01T14:45:50.628Z,26.20
2022-09-01T14:48:20.679Z,26.20
2022-09-01T14:50:51.203Z,26.20
2022-09-01T14:53:20.925Z,26.10
2022-09-01T14:55:51.523Z,26.20
2022-09-01T14:58:23.534Z,26.20
2022-09-01T15:00:51.823Z,26.20
2022-09-01T15:03:22.787Z,26.10
2022-09-01T15:05:51.731Z,26.10
2022-09-01T15:08:22.075Z,26.20
2022-09-01T15:10:50.496Z,26.20
2022-09-01T15:13:18.836Z,26.10
2022-09-01T15:15:47.233Z,26.10
2022-09-01T15:18:15.526Z,26.20
2022-09-01T15:20:47.139Z,26.20
2022-09-01T15:23:17.035Z,26.30
2022-09-01T15:25:46.927Z,26.30
2022-09-01T15:28:15.727Z,26.20
2022-09-01T15:30:46.375Z,26.30
2022-09-01T15:33:16.228Z,26.30
2022-09-01T15:35:45.058Z,26.30
2022-09-01T15:38:16.248Z,26.40
2022-09-01T15:40:51.960Z,26.30
2022-09-01T15:43:27.166Z,26.30
2022-09-01T15:45:56.599Z,26.20
2022-09-01T15:48:24.782Z,26.20
2022-09-01T15:50:54.231Z,26.20
2022-09-01T15:53:22.522Z,26.10
2022-09-01T15:55:52.089Z,26.10
2022-09-01T15:58:20.314Z,26.20
2022-09-01T16:00:48.763Z,26.10
2022-09-01T16:03:17.131Z,26.10
2022-09-01T16:05:45.676Z,26.00
2022-09-01T16:08:14.053Z,26.00
2022-09-01T16:10:43.380Z,26.00
2022-09-01T16:13:13.211Z,26.00
2022-09-01T16:15:50.241Z,25.90
2022-09-01T16:18:30.098Z,26.00
2022-09-01T16:21:04.881Z,25.90
2022-09-01T16:23:39.494Z,26.00
2022-09-01T16:26:07.996Z,26.00
2022-09-01T16:28:39.086Z,26.00
2022-09-01T16:31:12.972Z,26.00
2022-09-01T16:33:47.507Z,26.10
2022-09-01T16:36:29.318Z,26.10
2022-09-01T16:39:03.636Z,26.10
2022-09-01T16:41:43.865Z,26.20
2022-09-01T16:44:30.551Z,26.20
2022-09-01T16:47:07.393Z,26.20
2022-09-01T16:49:41.390Z,26.20
2022-09-01T16:52:16.600Z,26.10
2022-09-01T16:54:56.014Z,26.10
2022-09-01T16:57:33.931Z,26.10
2022-09-01T17:00:07.004Z,26.10
2022-09-01T17:02:42.218Z,26.10
2022-09-01T17:05:22.012Z,26.10
2022-09-01T17:07:54.103Z,26.10
2022-09-01T17:10:34.612Z,26.10
2022-09-01T17:13:15.841Z,26.10
2022-09-01T17:15:49.909Z,26.00
2022-09-01T17:18:23.217Z,26.00
2022-09-01T17:20:58.503Z,25.90
2022-09-01T17:23:30.823Z,25.90
2022-09-01T17:26:04.095Z,25.90
2022-09-01T17:28:37.234Z,25.90
2022-09-01T17:31:14.539Z,25.80
2022-09-01T17:34:01.881Z,25.80
2022-09-01T17:36:46.642Z,25.80
2022-09-01T17:39:26.536Z,25.80
2022-09-01T17:41:58.209Z,25.80
2022-09-01T17:44:36.969Z,25.70
2022-09-01T17:47:12.688Z,25.70
2022-09-01T17:49:53.839Z,25.70
2022-09-01T17:52:29.413Z,25.70
2022-09-01T17:55:03.872Z,25.70
2022-09-01T17:57:37.990Z,25.70
2022-09-01T18:00:23.711Z,25.60
2022-09-01T18:03:14.927Z,25.60
2022-09-01T18:05:46.373Z,25.60
2022-09-01T18:08:30.189Z,25.50
2022-09-01T18:11:02.377Z,25.50
2022-09-01T18:13:52.344Z,25.40
2022-09-01T18:16:24.673Z,25.30
2022-09-01T18:18:55.210Z,25.20
2022-09-01T18:21:27.339Z,25.10
2022-09-01T18:24:12.549Z,25.10
2022-09-01T18:26:42.578Z,25.10
2022-09-01T18:29:11.048Z,25.00
2022-09-01T18:32:09.863Z,24.80
2022-09-01T18:34:54.517Z,24.80
2022-09-01T18:37:28.462Z,24.70
2022-09-01T18:40:06.299Z,24.60
2022-09-01T18:42:41.704Z,24.60
2022-09-01T18:45:20.548Z,24.50
2022-09-01T18:47:57.550Z,24.50
2022-09-01T18:50:33.696Z,24.40
2022-09-01T18:53:10.469Z,24.40
2022-09-01T18:55:48.804Z,24.40
2022-09-01T18:58:28.113Z,24.30
2022-09-01T19:01:03.795Z,24.30
2022-09-01T19:03:35.000Z,24.30
2022-09-01T19:06:23.594Z,24.20
2022-09-01T19:09:02.845Z,24.20
2022-09-01T19:11:46.044Z,24.20
2022-09-01T19:17:09.022Z,24.10
2022-09-01T19:19:44.149Z,24.10
2022-09-01T19:22:20.313Z,24.10
2022-09-01T19:24:52.402Z,24.10
2022-09-01T19:27:25.862Z,24.10
2022-09-01T19:29:57.070Z,24.00
2022-09-01T19:32:29.798Z,24.00
2022-09-01T19:34:59.482Z,24.00
2022-09-01T19:37:29.288Z,24.00
2022-09-01T19:39:57.556Z,24.00
2022-09-01T19:42:29.778Z,24.00
2022-09-01T19:45:06.599Z,24.10
2022-09-01T19:47:40.352Z,24.10
2022-09-01T19:50:15.207Z,24.10
2022-09-01T19:52:52.801Z,24.10
2022-09-01T19:55:30.566Z,24.10
2022-09-01T19:58:04.091Z,24.10
2022-09-01T20:00:41.987Z,24.10
2022-09-01T20:03:13.956Z,24.00
2022-09-01T20:05:46.078Z,24.00
2022-09-01T20:08:21.245Z,24.00
2022-09-01T20:10:58.360Z,24.00
2022-09-01T20:13:47.379Z,24.00
2022-09-01T20:16:25.263Z,23.90
2022-09-01T20:18:59.325Z,23.90
2022-09-01T20:21:27.650Z,23.90
2022-09-01T20:24:02.231Z,24.00
2022-09-01T20:26:36.035Z,24.00
2022-09-01T20:29:10.322Z,23.90
2022-09-01T20:31:41.570Z,23.90
2022-09-01T20:34:16.811Z,23.80
2022-09-01T20:36:49.412Z,23.80
2022-09-01T20:39:42.380Z,23.80
2022-09-01T20:42:16.712Z,23.70
2022-09-01T20:44:51.114Z,23.70
2022-09-01T20:47:26.898Z,23.60
2022-09-01T20:49:55.395Z,23.50
2022-09-01T20:52:33.468Z,23.50
